Time;durP1;ratioP1;P1;durP2;ratioP2;P2;SDS_P1;SDS_P2;PMS_P1;PMS_P2;Temp;Humidity;BMP_temperature;BMP_pressure;BME280_temperature;BME280_humidity;BME280_pressure;Samples;Min_cycle;Max_cycle;Signal;HPM_P1;HPM_P2
2022/06/26 00:01:01;;;;;;;12.93;9.40;;;19.30;1.00;;;;;;5057427;28;20560;-60
2022/06/26 00:03:31;;;;;;;11.70;10.70;;;19.20;1.00;;;;;;5059867;28;20468;-61
2022/06/26 00:06:05;;;;;;;12.53;11.33;;;19.20;1.00;;;;;;5059934;28;20993;-61
2022/06/26 00:08:35;;;;;;;14.50;13.03;;;19.10;1.00;;;;;;5066946;28;20457;-61
2022/06/26 00:11:03;;;;;;;13.83;12.40;;;19.10;1.00;;;;;;5080286;28;20514;-62
2022/06/26 00:13:30;;;;;;;14.77;13.43;;;19.10;1.00;;;;;;5077901;28;20952;-61
2022/06/26 00:15:59;;;;;;;16.77;15.20;;;19.00;46.20;;;;;;5078653;28;20800;-62
2022/06/26 00:18:26;;;;;;;17.30;15.80;;;18.80;99.90;;;;;;5078480;28;20485;-61
2022/06/26 00:20:55;;;;;;;17.77;16.20;;;18.80;99.90;;;;;;5079017;28;20560;-62
2022/06/26 00:23:23;;;;;;;18.70;17.10;;;18.70;99.90;;;;;;5079204;28;20472;-62
2022/06/26 00:25:50;;;;;;;20.00;18.40;;;18.60;99.90;;;;;;5079552;28;20553;-61
2022/06/26 00:28:19;;;;;;;19.53;17.60;;;18.60;1.00;;;;;;5070656;28;20551;-62
2022/06/26 00:30:46;;;;;;;18.00;16.53;;;18.50;1.00;;;;;;5068499;28;20461;-61
2022/06/26 00:33:16;;;;;;;16.77;15.30;;;18.60;99.90;;;;;;5066934;28;20517;-61
2022/06/26 00:35:44;;;;;;;16.27;14.70;;;18.60;1.00;;;;;;5068510;28;20567;-61
2022/06/26 00:38:13;;;;;;;16.57;14.97;;;18.50;99.90;;;;;;5068887;28;20550;-61
2022/06/26 00:40:43;;;;;;;15.50;14.10;;;18.60;1.00;;;;;;5064470;28;20486;-62
2022/06/26 00:43:13;;;;;;;15.87;14.37;;;18.50;1.00;;;;;;5067325;28;20461;-61
2022/06/26 00:45:40;;;;;;;14.43;13.20;;;18.70;1.00;;;;;;5067505;28;20458;-61
2022/06/26 00:48:08;;;;;;;15.60;14.20;;;18.70;1.00;;;;;;5078642;28;20461;-61
2022/06/26 00:50:37;;;;;;;14.27;13.00;;;18.70;1.00;;;;;;5078534;28;20457;-61
2022/06/26 00:53:05;;;;;;;15.13;13.83;;;18.60;1.00;;;;;;5078296;28;20556;-62
2022/06/26 00:55:33;;;;;;;13.63;12.37;;;18.70;1.00;;;;;;5078669;28;20468;-61
2022/06/26 00:58:09;;;;;;;13.73;12.53;;;18.70;99.90;;;;;;5078871;28;20878;-61
2022/06/26 01:00:38;;;;;;;13.90;12.60;;;18.70;99.90;;;;;;5079090;28;20547;-61
2022/06/26 01:03:05;;;;;;;13.47;12.40;;;18.70;1.00;;;;;;5078255;28;20551;-61
2022/06/26 01:05:33;;;;;;;14.17;12.90;;;18.80;1.00;;;;;;5078930;28;20476;-61
2022/06/26 01:08:03;;;;;;;12.17;11.07;;;18.70;1.00;;;;;;5072836;28;20493;-61
2022/06/26 01:10:31;;;;;;;14.00;12.60;;;18.70;1.00;;;;;;5059397;28;20481;-61
2022/06/26 01:13:01;;;;;;;12.57;11.47;;;18.70;1.00;;;;;;5058300;28;20553;-61
2022/06/26 01:15:29;;;;;;;12.37;11.47;;;18.70;1.00;;;;;;5058258;28;20535;-61
2022/06/26 01:17:56;;;;;;;12.70;11.60;;;18.60;99.90;;;;;;5058057;28;20573;-61
2022/06/26 01:20:24;;;;;;;12.53;11.43;;;18.60;99.90;;;;;;5058844;28;20585;-62
2022/06/26 01:23:00;;;;;;;11.90;10.80;;;18.50;99.90;;;;;;5059053;28;20466;-62
2022/06/26 01:25:47;;;;;;;12.87;11.63;;;18.40;1.00;;;;;;5057462;28;20556;-61
2022/06/26 01:28:17;;;;;;;11.60;10.60;;;18.40;1.00;;;;;;5056987;28;20898;-62
2022/06/26 01:30:44;;;;;;;12.90;11.60;;;18.30;1.00;;;;;;5057622;28;20462;-62
2022/06/26 01:33:12;;;;;;;16.10;12.53;;;18.30;1.00;;;;;;5057310;28;20560;-62
2022/06/26 01:35:42;;;;;;;14.20;12.90;;;18.20;1.00;;;;;;5057625;28;20561;-61
2022/06/26 01:38:15;;;;;;;13.17;12.07;;;18.10;1.00;;;;;;5057849;28;21001;-61
2022/06/26 01:40:44;;;;;;;13.77;12.43;;;18.20;99.90;;;;;;5057816;28;20912;-61
2022/06/26 01:43:12;;;;;;;13.17;11.90;;;18.10;99.90;;;;;;5058180;28;20894;-61
2022/06/26 01:45:44;;;;;;;11.83;10.70;;;18.20;99.90;;;;;;5058395;28;20553;-61
2022/06/26 01:48:11;;;;;;;14.33;12.93;;;18.10;99.90;;;;;;5058391;28;20462;-61
2022/06/26 01:50:39;;;;;;;13.17;12.00;;;18.10;73.90;;;;;;5058314;28;20543;-61
2022/06/26 01:53:06;;;;;;;14.37;13.17;;;18.00;1.00;;;;;;5057989;28;20541;-61
2022/06/26 01:55:38;;;;;;;13.97;12.80;;;17.90;24.70;;;;;;5057797;28;20557;-61
2022/06/26 01:58:05;;;;;;;14.47;13.07;;;17.90;1.00;;;;;;5057973;28;20531;-61
2022/06/26 02:00:37;;;;;;;14.23;13.03;;;17.90;1.00;;;;;;5058063;28;20496;-61
2022/06/26 02:03:05;;;;;;;13.40;12.30;;;17.80;2.10;;;;;;5057994;28;20465;-62
2022/06/26 02:05:33;;;;;;;14.63;13.27;;;17.80;1.00;;;;;;5057917;28;20561;-61
2022/06/26 02:08:00;;;;;;;15.43;13.97;;;17.70;99.90;;;;;;5058014;28;20469;-62
2022/06/26 02:16:00;;;;;;;17.23;15.73;;;17.90;1.00;;;;;;5057431;28;20762;-61
2022/06/26 02:18:29;;;;;;;14.60;13.30;;;17.90;1.00;;;;;;5057498;28;20507;-61
2022/06/26 02:20:58;;;;;;;14.83;13.50;;;17.90;34.10;;;;;;5057678;28;20494;-61
2022/06/26 02:23:26;;;;;;;15.00;13.60;;;17.90;1.00;;;;;;5057378;28;20550;-61
2022/06/26 02:25:58;;;;;;;14.43;13.17;;;18.00;99.90;;;;;;5056505;28;20533;-61
2022/06/26 02:28:30;;;;;;;13.90;12.80;;;18.00;99.90;;;;;;5057693;28;20960;-62
2022/06/26 02:31:00;;;;;;;14.07;12.83;;;18.10;99.90;;;;;;5057974;28;20458;-61
2022/06/26 02:33:28;;;;;;;13.23;12.03;;;18.10;1.00;;;;;;5057534;28;20894;-61
2022/06/26 02:35:56;;;;;;;12.20;11.20;;;18.10;21.60;;;;;;5057354;28;20564;-61
2022/06/26 02:38:23;;;;;;;12.70;11.70;;;18.10;99.90;;;;;;5057362;28;20557;-61
2022/06/26 02:40:51;;;;;;;13.33;12.03;;;18.00;99.90;;;;;;5057374;28;20942;-61
2022/06/26 02:43:19;;;;;;;15.50;14.10;;;18.00;99.90;;;;;;5056740;28;20608;-61
2022/06/26 02:45:48;;;;;;;15.90;14.40;;;18.00;1.00;;;;;;5057239;28;20462;-62
2022/06/26 02:48:15;;;;;;;15.87;14.40;;;17.90;99.90;;;;;;5057260;28;20460;-61
2022/06/26 02:50:43;;;;;;;17.77;16.30;;;17.90;99.90;;;;;;5057462;28;20558;-61
2022/06/26 02:53:10;;;;;;;19.80;17.80;;;17.90;99.90;;;;;;5056800;28;20444;-61
2022/06/26 02:55:41;;;;;;;21.83;19.80;;;17.90;99.90;;;;;;5057101;28;20461;-61
2022/06/26 02:58:09;;;;;;;20.77;18.87;;;17.90;99.90;;;;;;5057459;28;20469;-61
2022/06/26 03:00:36;;;;;;;21.27;19.30;;;18.00;99.90;;;;;;5057436;28;20543;-61
2022/06/26 03:03:05;;;;;;;22.83;20.57;;;18.00;99.90;;;;;;5056839;28;20463;-61
2022/06/26 03:05:33;;;;;;;21.10;19.20;;;17.90;99.90;;;;;;5056948;28;20486;-61
2022/06/26 03:08:04;;;;;;;20.43;18.50;;;17.80;99.90;;;;;;5056511;28;20446;-61
2022/06/26 03:10:31;;;;;;;21.93;19.97;;;17.70;1.00;;;;;;5057427;28;20490;-61
2022/06/26 03:13:02;;;;;;;21.80;19.90;;;17.70;1.00;;;;;;5057070;28;20552;-61
2022/06/26 03:15:29;;;;;;;23.70;21.40;;;17.60;99.90;;;;;;5056903;28;20490;-61
2022/06/26 03:18:02;;;;;;;23.60;21.20;;;17.50;99.90;;;;;;5056383;28;20584;-61
2022/06/26 03:20:33;;;;;;;23.40;21.17;;;17.50;1.00;;;;;;5056563;28;20468;-61
2022/06/26 03:23:01;;;;;;;21.90;19.87;;;17.50;99.90;;;;;;5057030;28;20458;-61
2022/06/26 03:25:29;;;;;;;24.57;22.17;;;17.50;1.00;;;;;;5056496;28;20468;-61
2022/06/26 03:27:56;;;;;;;23.90;21.60;;;17.60;1.00;;;;;;5056890;28;20457;-61
2022/06/26 03:30:24;;;;;;;23.70;21.50;;;17.60;1.00;;;;;;5056812;28;20469;-61
2022/06/26 03:32:51;;;;;;;23.87;21.77;;;17.60;99.90;;;;;;5056915;28;20556;-61
2022/06/26 03:35:21;;;;;;;25.40;23.03;;;17.70;99.90;;;;;;5056998;28;20908;-61
2022/06/26 03:37:50;;;;;;;23.97;21.87;;;17.70;1.00;;;;;;5060279;28;20512;-61
2022/06/26 03:40:17;;;;;;;24.23;22.00;;;17.60;1.00;;;;;;5060115;28;20940;-61
2022/06/26 03:42:47;;;;;;;25.57;23.07;;;17.50;1.00;;;;;;5060948;28;20467;-61
2022/06/26 03:45:15;;;;;;;26.77;24.17;;;17.50;99.90;;;;;;5060411;28;20898;-61
2022/06/26 03:47:42;;;;;;;25.47;22.87;;;17.50;99.90;;;;;;5060280;28;20447;-61
2022/06/26 03:50:10;;;;;;;26.20;23.67;;;17.40;99.90;;;;;;5060564;28;20477;-61
2022/06/26 03:52:37;;;;;;;27.47;24.87;;;17.40;1.00;;;;;;5060496;28;20469;-61
2022/06/26 03:55:09;;;;;;;30.43;27.60;;;17.40;1.00;;;;;;5059902;28;20527;-61
2022/06/26 03:57:37;;;;;;;28.30;25.63;;;17.30;39.10;;;;;;5060267;28;20488;-61
2022/06/26 04:00:05;;;;;;;26.57;24.07;;;17.40;99.90;;;;;;5060117;28;20467;-61
2022/06/26 04:02:37;;;;;;;26.60;23.93;;;17.40;99.90;;;;;;5060661;28;20561;-62
2022/06/26 04:05:06;;;;;;;26.00;23.40;;;17.40;99.90;;;;;;5059572;28;20519;-61
2022/06/26 04:07:36;;;;;;;26.97;24.23;;;17.50;33.10;;;;;;5059905;28;20516;-61
2022/06/26 04:10:04;;;;;;;25.23;22.83;;;17.50;1.00;;;;;;5060014;28;20552;-61
2022/06/26 04:12:33;;;;;;;26.80;24.13;;;17.50;1.00;;;;;;5060394;28;20560;-61
2022/06/26 04:15:01;;;;;;;24.93;22.53;;;17.60;1.00;;;;;;5060210;28;20730;-61
2022/06/26 04:17:29;;;;;;;24.67;22.27;;;17.60;1.00;;;;;;5059367;28;20497;-61
2022/06/26 04:19:57;;;;;;;24.40;22.10;;;17.70;1.00;;;;;;5059881;28;20476;-61
2022/06/26 04:22:25;;;;;;;24.33;21.70;;;17.70;99.90;;;;;;5059491;28;20466;-62
2022/06/26 04:24:52;;;;;;;22.97;20.77;;;17.70;99.90;;;;;;5059944;28;20556;-61
2022/06/26 04:27:19;;;;;;;22.97;20.60;;;17.80;99.90;;;;;;5059458;28;20563;-62
2022/06/26 04:29:48;;;;;;;22.53;20.30;;;18.00;99.90;;;;;;5059990;28;20464;-62
2022/06/26 04:32:16;;;;;;;19.27;17.03;;;18.10;1.00;;;;;;5059347;28;20569;-61
2022/06/26 04:34:44;;;;;;;18.73;16.97;;;18.20;1.00;;;;;;5054098;28;20471;-61
2022/06/26 04:37:11;;;;;;;16.27;14.77;;;18.20;99.90;;;;;;5052464;28;20830;-61
2022/06/26 04:39:38;;;;;;;17.43;15.83;;;18.30;1.00;;;;;;5039289;28;20438;-62
2022/06/26 04:42:06;;;;;;;15.47;14.13;;;18.30;81.50;;;;;;5039157;28;20566;-62
2022/06/26 04:44:33;;;;;;;14.67;13.10;;;18.30;14.40;;;;;;5039585;28;20570;-61
2022/06/26 04:47:04;;;;;;;14.43;12.97;;;18.20;1.00;;;;;;5039325;28;20874;-61
2022/06/26 04:49:32;;;;;;;12.80;11.53;;;18.10;99.90;;;;;;5038921;28;20473;-61
2022/06/26 04:51:59;;;;;;;12.43;10.87;;;18.20;99.90;;;;;;5038878;28;20561;-61
2022/06/26 04:54:29;;;;;;;11.90;10.63;;;18.30;99.90;;;;;;5039432;28;20567;-61
2022/06/26 04:56:56;;;;;;;11.77;10.70;;;18.30;99.90;;;;;;5039432;28;20475;-61
2022/06/26 04:59:23;;;;;;;11.77;10.67;;;18.30;99.90;;;;;;5039140;28;20757;-61
2022/06/26 05:01:51;;;;;;;10.40;9.40;;;18.40;99.90;;;;;;5039347;28;20657;-61
2022/06/26 05:04:21;;;;;;;10.90;9.90;;;18.20;94.90;;;;;;5039394;28;20506;-61
2022/06/26 05:06:49;;;;;;;9.70;8.80;;;18.30;99.90;;;;;;5039042;28;20455;-61
2022/06/26 05:09:17;;;;;;;10.30;9.30;;;18.50;99.90;;;;;;5038454;28;20498;-61
2022/06/26 05:11:44;;;;;;;11.23;8.60;;;18.70;99.90;;;;;;5037990;28;20466;-61
2022/06/26 05:14:11;;;;;;;9.63;8.77;;;18.70;1.00;;;;;;5037769;28;20463;-61
2022/06/26 05:16:39;;;;;;;9.07;8.17;;;18.80;1.00;;;;;;5037504;28;20467;-61
2022/06/26 05:19:06;;;;;;;8.97;8.23;;;18.90;1.00;;;;;;5038330;28;20487;-61
2022/06/26 05:21:35;;;;;;;10.03;9.13;;;18.80;1.00;;;;;;5038703;28;21045;-61
2022/06/26 05:24:02;;;;;;;10.00;8.97;;;18.60;1.00;;;;;;5038766;28;20553;-62
2022/06/26 05:26:30;;;;;;;9.10;8.30;;;18.70;1.00;;;;;;5039062;28;20490;-61
2022/06/26 05:28:57;;;;;;;12.60;10.40;;;18.60;1.00;;;;;;5037514;28;20561;-61
2022/06/26 05:31:25;;;;;;;11.90;10.80;;;18.60;1.00;;;;;;5036707;28;20452;-62
2022/06/26 05:33:52;;;;;;;11.60;10.57;;;18.50;1.00;;;;;;5037583;28;20495;-62
2022/06/26 05:36:19;;;;;;;12.33;10.80;;;18.50;1.00;;;;;;5036877;28;20469;-61
2022/06/26 05:38:48;;;;;;;14.30;12.93;;;18.40;1.00;;;;;;5038379;28;20463;-61
2022/06/26 05:41:16;;;;;;;17.77;16.10;;;18.40;1.00;;;;;;5038012;28;21013;-60
2022/06/26 05:43:44;;;;;;;17.87;16.37;;;18.30;1.00;;;;;;5037939;28;20467;-61
2022/06/26 05:46:15;;;;;;;16.87;15.50;;;18.30;1.00;;;;;;5038524;28;20561;-61
2022/06/26 05:48:45;;;;;;;15.20;13.90;;;18.30;1.00;;;;;;5038186;28;20494;-61
2022/06/26 05:51:12;;;;;;;12.43;11.50;;;18.30;1.00;;;;;;5038047;28;20506;-61
2022/06/26 05:53:39;;;;;;;9.57;8.70;;;18.40;1.00;;;;;;5037903;28;20467;-61
2022/06/26 05:56:12;;;;;;;10.00;9.00;;;18.40;1.00;;;;;;5038402;28;20477;-61
2022/06/26 05:58:41;;;;;;;8.03;7.33;;;18.40;1.00;;;;;;5037942;28;20495;-61
2022/06/26 06:01:13;;;;;;;9.10;8.40;;;18.40;1.00;;;;;;5037771;28;20613;-61
2022/06/26 06:03:43;;;;;;;7.93;7.23;;;18.40;1.00;;;;;;5037616;28;20467;-61
2022/06/26 06:06:13;;;;;;;7.13;6.53;;;18.60;1.00;;;;;;5038321;28;20536;-62
2022/06/26 06:08:40;;;;;;;9.00;5.37;;;18.70;1.00;;;;;;5038462;28;20470;-61
2022/06/26 06:11:09;;;;;;;4.40;4.00;;;18.60;1.00;;;;;;5037678;28;20798;-61
2022/06/26 06:13:38;;;;;;;4.30;3.90;;;18.60;1.00;;;;;;5038300;28;20755;-61
2022/06/26 06:16:07;;;;;;;3.67;3.03;;;18.70;99.90;;;;;;5038111;28;20817;-61
2022/06/26 06:18:34;;;;;;;4.10;3.70;;;18.60;99.90;;;;;;5037821;28;20490;-62
2022/06/26 06:21:02;;;;;;;5.27;3.60;;;18.80;99.90;;;;;;5037606;28;20831;-61
2022/06/26 06:23:29;;;;;;;4.30;3.87;;;18.80;99.90;;;;;;5037434;28;20899;-61
2022/06/26 06:25:56;;;;;;;3.73;3.23;;;19.00;99.90;;;;;;5037539;28;20565;-61
2022/06/26 06:28:25;;;;;;;5.67;4.40;;;19.20;99.90;;;;;;5037743;28;20732;-61
2022/06/26 06:30:55;;;;;;;5.97;4.70;;;19.20;99.90;;;;;;5038082;28;20504;-62
2022/06/26 06:33:22;;;;;;;8.53;4.70;;;19.30;99.90;;;;;;5037251;28;20565;-61
2022/06/26 06:35:51;;;;;;;5.83;4.70;;;19.40;99.90;;;;;;5037302;28;20828;-62
2022/06/26 06:38:19;;;;;;;4.07;3.67;;;19.30;99.90;;;;;;5037444;28;20463;-62
2022/06/26 06:40:47;;;;;;;4.50;3.40;;;19.20;99.90;;;;;;5037148;28;20497;-62
2022/06/26 06:43:18;;;;;;;3.93;3.20;;;19.20;99.90;;;;;;5037032;28;20473;-62
2022/06/26 06:45:47;;;;;;;3.57;2.33;;;19.10;99.90;;;;;;5037350;28;20477;-62
2022/06/26 06:48:15;;;;;;;4.90;3.63;;;18.90;99.90;;;;;;5037293;28;20463;-62
2022/06/26 06:50:42;;;;;;;4.23;3.13;;;18.60;99.90;;;;;;5037312;28;20522;-62
2022/06/26 06:53:10;;;;;;;5.57;3.93;;;18.70;99.90;;;;;;5037306;28;20463;-62
2022/06/26 06:55:37;;;;;;;3.87;3.40;;;18.80;99.90;;;;;;5036750;28;20467;-62
2022/06/26 06:58:08;;;;;;;5.83;3.73;;;18.70;99.90;;;;;;5048982;28;20480;-62
2022/06/26 07:00:36;;;;;;;3.50;3.20;;;18.90;99.90;;;;;;5057389;28;20468;-61
2022/06/26 07:03:06;;;;;;;3.97;3.57;;;19.60;99.90;;;;;;5056861;28;20898;-62
2022/06/26 07:05:34;;;;;;;4.00;3.60;;;20.10;99.90;;;;;;5056800;28;20774;-62
2022/06/26 07:08:02;;;;;;;3.60;3.03;;;20.40;99.90;;;;;;5056768;28;20508;-62
2022/06/26 07:10:29;;;;;;;3.43;3.13;;;20.60;99.90;;;;;;5057344;28;20827;-62
2022/06/26 07:13:00;;;;;;;5.80;4.03;;;20.60;99.90;;;;;;5061395;28;20819;-62
2022/06/26 07:15:28;;;;;;;4.20;3.30;;;21.10;99.90;;;;;;5061620;28;20458;-63
2022/06/26 07:17:57;;;;;;;3.07;2.73;;;21.00;99.90;;;;;;5060829;28;20800;-62
2022/06/26 07:20:26;;;;;;;5.27;2.70;;;21.60;99.90;;;;;;5061517;28;20440;-62
2022/06/26 07:23:04;;;;;;;2.40;2.13;;;22.10;99.90;;;;;;5060766;28;20454;-62
2022/06/26 07:25:31;;;;;;;3.83;2.50;;;22.40;99.90;;;;;;5060832;28;20461;-62
2022/06/26 07:27:58;;;;;;;5.97;2.90;;;22.30;99.90;;;;;;5060847;28;20523;-62
2022/06/26 07:30:28;;;;;;;3.70;2.80;;;22.50;99.90;;;;;;5060927;28;20558;-62
2022/06/26 07:32:55;;;;;;;3.97;1.90;;;22.80;99.90;;;;;;5060975;28;20571;-62
2022/06/26 07:35:30;;;;;;;3.90;2.80;;;23.30;99.90;;;;;;5060719;28;20877;-63
2022/06/26 07:38:05;;;;;;;2.43;2.23;;;23.10;99.90;;;;;;5061035;28;20958;-62
2022/06/26 07:40:33;;;;;;;3.27;2.30;;;23.30;99.90;;;;;;5061090;28;20461;-62
2022/06/26 07:43:00;;;;;;;3.33;2.10;;;23.80;99.90;;;;;;5061068;28;20564;-62
2022/06/26 07:45:28;;;;;;;2.73;2.40;;;23.90;99.90;;;;;;5059326;28;20714;-62
2022/06/26 07:50:36;;;;;;;3.50;2.73;;;24.20;99.90;;;;;;5060517;28;20760;-63
2022/06/26 07:53:11;;;;;;;5.70;2.33;;;23.40;99.90;;;;;;5060112;28;20529;-63
2022/06/26 07:55:38;;;;;;;3.00;2.80;;;23.00;99.90;;;;;;5060242;28;20457;-62
2022/06/26 07:58:06;;;;;;;2.60;2.30;;;24.40;99.90;;;;;;5060490;28;20528;-62
2022/06/26 08:00:33;;;;;;;3.37;2.60;;;24.80;99.90;;;;;;5060516;28;20949;-62
2022/06/26 08:03:13;;;;;;;2.70;2.13;;;24.40;99.90;;;;;;5060525;28;20584;-62
2022/06/26 08:05:42;;;;;;;3.10;2.40;;;24.10;99.90;;;;;;5060005;28;20462;-61
2022/06/26 08:08:11;;;;;;;4.43;2.63;;;23.70;99.90;;;;;;5060459;28;20885;-61
2022/06/26 08:10:39;;;;;;;2.93;2.63;;;23.10;99.90;;;;;;5060805;28;20497;-61
2022/06/26 08:13:07;;;;;;;2.93;2.13;;;22.70;99.90;;;;;;5060331;28;20432;-61
2022/06/26 08:15:37;;;;;;;3.67;2.40;;;22.50;99.90;;;;;;5060112;28;20539;-61
2022/06/26 08:18:09;;;;;;;2.87;2.40;;;22.20;99.90;;;;;;5059978;28;20573;-61
2022/06/26 08:20:39;;;;;;;2.70;2.50;;;22.00;99.90;;;;;;5060276;28;20462;-62
2022/06/26 08:23:11;;;;;;;5.10;2.20;;;21.60;99.90;;;;;;5058653;28;20530;-61
2022/06/26 08:25:38;;;;;;;2.20;1.90;;;21.70;99.90;;;;;;5059270;28;20814;-62
2022/06/26 08:28:06;;;;;;;3.13;2.30;;;21.60;99.90;;;;;;5064518;28;20516;-61
2022/06/26 08:30:35;;;;;;;2.50;2.30;;;21.60;99.90;;;;;;5070653;28;20457;-61
2022/06/26 08:33:03;;;;;;;4.10;2.57;;;21.60;99.90;;;;;;5059036;28;20462;-61
2022/06/26 08:35:30;;;;;;;3.63;2.83;;;21.60;99.90;;;;;;5059508;28;20573;-61
2022/06/26 08:38:00;;;;;;;6.30;3.40;;;21.70;99.90;;;;;;5074186;28;20461;-61
2022/06/26 08:40:29;;;;;;;2.47;2.23;;;21.50;99.90;;;;;;5080198;28;20461;-61
2022/06/26 08:43:05;;;;;;;2.73;2.50;;;21.40;99.90;;;;;;5077735;28;20489;-61
2022/06/26 08:45:33;;;;;;;3.07;2.50;;;21.20;99.90;;;;;;5078270;28;20905;-62
2022/06/26 08:48:03;;;;;;;2.83;2.50;;;20.80;99.90;;;;;;5050618;28;20911;-61
2022/06/26 08:50:34;;;;;;;3.70;3.03;;;20.70;99.90;;;;;;5039434;28;20558;-61
2022/06/26 08:53:02;;;;;;;3.60;2.87;;;20.60;99.90;;;;;;5039298;28;20430;-61
2022/06/26 08:55:31;;;;;;;3.60;2.83;;;20.40;99.90;;;;;;5039231;28;20498;-61
2022/06/26 08:58:01;;;;;;;2.63;2.43;;;20.50;99.90;;;;;;5038953;28;20563;-61
2022/06/26 09:00:30;;;;;;;4.07;2.90;;;20.70;99.90;;;;;;5039666;28;20525;-61
2022/06/26 09:03:00;;;;;;;3.50;3.20;;;20.60;99.90;;;;;;5039433;28;20498;-61
2022/06/26 09:05:27;;;;;;;3.43;2.77;;;20.60;99.90;;;;;;5039143;28;20953;-61
2022/06/26 09:07:59;;;;;;;4.20;2.73;;;20.80;99.90;;;;;;5039601;28;20541;-61
2022/06/26 09:10:34;;;;;;;4.07;2.57;;;21.00;99.90;;;;;;5039041;28;20817;-61
2022/06/26 09:13:08;;;;;;;3.33;3.00;;;21.10;99.90;;;;;;5042116;28;20436;-61
2022/06/26 09:15:41;;;;;;;3.57;3.27;;;21.10;99.90;;;;;;5054842;28;20468;-61
2022/06/26 09:18:10;;;;;;;5.57;3.40;;;20.80;99.90;;;;;;5058790;28;20569;-61
2022/06/26 09:20:55;;;;;;;3.50;3.20;;;20.40;99.90;;;;;;5059150;28;20901;-61
2022/06/26 09:23:22;;;;;;;4.50;3.63;;;20.50;99.90;;;;;;5059308;28;20494;-61
2022/06/26 09:25:51;;;;;;;3.77;3.07;;;20.50;99.90;;;;;;5058914;28;20460;-62
2022/06/26 09:28:22;;;;;;;8.43;3.97;;;20.30;99.90;;;;;;5059005;28;20535;-61
2022/06/26 09:30:51;;;;;;;5.47;3.47;;;20.50;99.90;;;;;;5059009;28;20524;-61
2022/06/26 09:33:20;;;;;;;3.87;2.93;;;20.50;99.90;;;;;;5058505;28;20462;-61
2022/06/26 09:35:48;;;;;;;3.33;3.00;;;20.70;99.90;;;;;;5058524;28;20561;-62
2022/06/26 09:38:23;;;;;;;4.07;3.73;;;21.00;99.90;;;;;;5059053;28;20462;-61
2022/06/26 09:41:05;;;;;;;4.07;3.63;;;21.30;99.90;;;;;;5059066;28;20454;-61
2022/06/26 09:43:40;;;;;;;4.10;3.70;;;21.20;99.90;;;;;;5058597;28;20489;-61
2022/06/26 09:46:09;;;;;;;5.73;3.60;;;21.20;99.90;;;;;;5058566;28;20461;-62
2022/06/26 09:48:37;;;;;;;4.10;3.57;;;21.00;99.90;;;;;;5058948;28;20488;-61
2022/06/26 09:51:12;;;;;;;4.23;3.50;;;21.00;99.90;;;;;;5058390;28;20834;-61
2022/06/26 09:53:40;;;;;;;4.23;3.23;;;21.00;99.90;;;;;;5059481;28;20601;-61
2022/06/26 09:56:11;;;;;;;4.07;3.67;;;21.20;99.90;;;;;;5058608;28;20466;-61
2022/06/26 09:58:38;;;;;;;3.53;3.23;;;21.20;99.90;;;;;;5058489;28;20745;-61
2022/06/26 10:06:50;;;;;;;4.40;3.80;;;20.80;99.90;;;;;;5057781;28;20487;-61
2022/06/26 10:09:17;;;;;;;5.53;3.50;;;20.80;99.90;;;;;;5058122;28;20899;-61
2022/06/26 10:11:48;;;;;;;4.73;4.27;;;20.80;99.90;;;;;;5058276;28;20454;-61
2022/06/26 10:14:19;;;;;;;4.27;3.97;;;21.00;99.90;;;;;;5058377;28;20552;-61
2022/06/26 10:17:26;;;;;;;3.60;3.30;;;21.40;99.90;;;;;;5058313;28;20903;-61
2022/06/26 10:19:55;;;;;;;3.77;3.40;;;22.20;99.90;;;;;;5058001;28;20541;-61
2022/06/26 10:22:37;;;;;;;4.50;3.37;;;23.50;99.90;;;;;;5055696;28;20897;-61
2022/06/26 10:25:08;;;;;;;4.07;3.67;;;23.90;99.90;;;;;;5055743;28;20571;-61
2022/06/26 10:27:40;;;;;;;7.23;3.90;;;23.60;99.90;;;;;;5057554;28;20561;-60
2022/06/26 10:30:15;;;;;;;5.13;3.70;;;23.20;99.90;;;;;;5057554;28;20561;-61
2022/06/26 10:32:47;;;;;;;4.10;3.63;;;23.00;99.90;;;;;;5058006;28;20511;-61
2022/06/26 10:35:15;;;;;;;3.90;3.60;;;23.00;99.90;;;;;;5057862;28;20954;-61
2022/06/26 10:37:46;;;;;;;3.80;3.40;;;22.90;99.90;;;;;;5057707;28;20548;-61
2022/06/26 10:43:02;;;;;;;6.93;3.87;;;22.90;99.90;;;;;;5057060;28;20497;-61
2022/06/26 10:45:31;;;;;;;4.33;3.93;;;22.40;99.90;;;;;;5054848;28;20466;-61
2022/06/26 10:48:05;;;;;;;4.30;3.90;;;22.40;99.90;;;;;;5055270;28;20770;-62
2022/06/26 10:50:37;;;;;;;4.23;3.83;;;22.50;99.90;;;;;;5055771;28;20556;-61
2022/06/26 10:53:21;;;;;;;4.13;3.73;;;22.80;99.90;;;;;;5054747;28;20462;-61
2022/06/26 10:55:51;;;;;;;4.57;4.17;;;23.10;99.90;;;;;;5056268;28;20837;-61
2022/06/26 10:58:27;;;;;;;4.47;4.07;;;23.30;99.90;;;;;;5055425;28;20557;-61
2022/06/26 11:00:58;;;;;;;4.43;4.10;;;23.50;99.90;;;;;;5049535;28;20477;-62
2022/06/26 11:03:25;;;;;;;4.17;3.87;;;23.60;99.90;;;;;;5056609;28;20960;-62
2022/06/26 11:05:58;;;;;;;4.57;3.80;;;23.50;99.90;;;;;;5055039;28;20941;-62
2022/06/26 11:08:30;;;;;;;4.67;3.80;;;23.70;99.90;;;;;;5054436;28;20477;-61
2022/06/26 11:11:01;;;;;;;5.50;4.17;;;23.70;99.90;;;;;;5053420;28;20904;-62
2022/06/26 11:13:31;;;;;;;3.97;3.67;;;23.90;99.90;;;;;;5055270;28;20462;-62
2022/06/26 11:16:04;;;;;;;5.67;4.13;;;23.80;99.90;;;;;;5056200;28;20454;-62
2022/06/26 11:18:36;;;;;;;3.90;3.60;;;23.20;99.90;;;;;;5055520;28;20483;-62
2022/06/26 11:21:06;;;;;;;3.93;3.57;;;23.80;99.90;;;;;;5060331;28;20559;-62
2022/06/26 11:23:35;;;;;;;3.80;3.50;;;24.40;99.90;;;;;;5054111;28;20480;-63
2022/06/26 11:26:05;;;;;;;5.27;2.90;;;25.00;99.90;;;;;;5052353;28;20891;-63
2022/06/26 11:28:35;;;;;;;3.73;3.43;;;25.20;99.90;;;;;;5054088;28;20561;-63
2022/06/26 11:31:04;;;;;;;3.63;3.33;;;25.40;99.90;;;;;;5049920;28;20466;-63
2022/06/26 11:33:33;;;;;;;2.93;2.73;;;25.40;99.90;;;;;;5040621;28;20871;-63
2022/06/26 11:36:08;;;;;;;3.20;2.90;;;25.40;99.90;;;;;;5052562;28;20898;-62
2022/06/26 11:38:38;;;;;;;2.90;2.70;;;25.50;99.90;;;;;;5055353;28;20458;-63
2022/06/26 11:41:11;;;;;;;3.60;3.20;;;25.20;99.90;;;;;;5055853;28;20462;-63
2022/06/26 11:43:46;;;;;;;3.33;3.03;;;25.20;99.90;;;;;;5055420;28;20942;-62
2022/06/26 11:46:14;;;;;;;3.20;3.00;;;25.50;99.90;;;;;;5056293;28;20466;-63
2022/06/26 11:48:42;;;;;;;3.00;2.80;;;25.60;99.90;;;;;;5056553;28;20846;-63
2022/06/26 11:51:16;;;;;;;3.53;3.23;;;25.60;99.90;;;;;;5056030;28;20573;-63
2022/06/26 11:53:45;;;;;;;3.30;3.00;;;25.40;99.90;;;;;;5050542;28;20462;-63
2022/06/26 11:56:20;;;;;;;3.63;3.33;;;25.30;99.90;;;;;;5056474;28;20559;-62
2022/06/26 11:58:55;;;;;;;4.43;3.67;;;25.20;99.90;;;;;;5058646;28;20432;-62
2022/06/26 12:01:33;;;;;;;3.80;3.43;;;25.10;99.90;;;;;;5059033;28;20530;-62
2022/06/26 12:04:01;;;;;;;4.00;3.70;;;24.30;99.90;;;;;;5059497;28;20493;-62
2022/06/26 12:09:20;;;;;;;3.50;3.20;;;24.10;99.90;;;;;;5056544;28;20808;-62
2022/06/26 12:11:50;;;;;;;5.03;3.80;;;23.90;99.90;;;;;;5057178;28;20457;-62
2022/06/26 12:14:20;;;;;;;3.47;3.17;;;23.90;99.90;;;;;;5057223;28;20458;-62
2022/06/26 12:16:50;;;;;;;3.97;3.57;;;23.50;99.90;;;;;;5057107;28;20462;-61
2022/06/26 12:19:20;;;;;;;3.43;3.13;;;23.30;99.90;;;;;;5053785;28;20491;-62
2022/06/26 12:21:49;;;;;;;3.70;3.40;;;23.10;99.90;;;;;;5055537;28;20466;-62
2022/06/26 12:24:20;;;;;;;5.23;3.10;;;23.20;99.90;;;;;;5056899;28;20500;-61
2022/06/26 12:26:49;;;;;;;3.90;3.53;;;23.10;99.90;;;;;;5049224;28;20810;-62
2022/06/26 12:29:20;;;;;;;3.83;3.53;;;22.90;99.90;;;;;;5058014;28;20878;-62
2022/06/26 12:31:48;;;;;;;4.50;4.10;;;22.80;99.90;;;;;;5057522;28;20816;-61
2022/06/26 12:34:18;;;;;;;4.30;3.67;;;22.50;99.90;;;;;;5056965;28;20545;-61
2022/06/26 12:36:57;;;;;;;4.27;3.87;;;22.50;99.90;;;;;;5056915;28;20923;-61
2022/06/26 12:39:30;;;;;;;4.23;3.93;;;22.40;99.90;;;;;;5056148;28;20539;-61
2022/06/26 12:41:57;;;;;;;5.20;4.20;;;22.30;99.90;;;;;;5057308;28;20831;-61
2022/06/26 12:44:32;;;;;;;4.07;3.70;;;21.90;99.90;;;;;;5054495;28;20539;-61
2022/06/26 12:47:02;;;;;;;4.83;4.00;;;22.00;99.90;;;;;;5054209;28;20800;-61
2022/06/26 12:49:30;;;;;;;4.03;3.70;;;21.90;99.90;;;;;;5056221;28;20462;-61
2022/06/26 12:51:58;;;;;;;4.07;3.67;;;22.00;99.90;;;;;;5056452;28;20461;-61
2022/06/26 12:54:26;;;;;;;3.73;3.40;;;21.90;99.90;;;;;;5056986;28;20973;-61
2022/06/26 12:56:53;;;;;;;4.77;3.87;;;22.00;99.90;;;;;;5056449;28;20545;-61
2022/06/26 12:59:21;;;;;;;3.63;3.33;;;21.80;99.90;;;;;;5056643;28;20761;-61
2022/06/26 13:01:52;;;;;;;4.00;3.60;;;21.80;99.90;;;;;;5056770;28;20860;-61
2022/06/26 13:04:23;;;;;;;4.30;3.83;;;21.70;99.90;;;;;;5056321;28;21015;-61
2022/06/26 13:06:53;;;;;;;6.30;3.37;;;21.60;99.90;;;;;;5056789;28;20462;-61
2022/06/26 13:09:24;;;;;;;3.50;3.20;;;21.60;99.90;;;;;;5057544;28;20466;-61
2022/06/26 13:11:51;;;;;;;5.30;3.90;;;21.70;99.90;;;;;;5058366;28;20489;-61